Time;durP1;ratioP1;P1;durP2;ratioP2;P2;SDS_P1;SDS_P2;PMS_P1;PMS_P2;Temp;Humidity;BMP_temperature;BMP_pressure;BME280_temperature;BME280_humidity;BME280_pressure;Samples;Min_cycle;Max_cycle;Signal;HPM_P1;HPM_P2
2024/03/07 00:00:03;;;;;;;47.83;26.40;;;5.30;99.90;;;;;;5054931;28;20504;-83
2024/03/07 00:02:33;;;;;;;48.00;24.33;;;5.30;99.90;;;;;;5054981;28;20465;-82
2024/03/07 00:05:00;;;;;;;47.57;25.73;;;5.30;99.90;;;;;;5054188;28;20494;-84
2024/03/07 00:07:27;;;;;;;48.87;27.03;;;5.20;99.90;;;;;;5055029;28;20455;-83
2024/03/07 00:09:55;;;;;;;45.40;24.60;;;5.20;99.90;;;;;;5051957;28;21049;-81
2024/03/07 00:12:23;;;;;;;47.93;25.70;;;5.10;99.90;;;;;;5035351;28;20460;-81
2024/03/07 00:14:50;;;;;;;49.27;23.67;;;5.10;99.90;;;;;;5052072;28;20482;-82
2024/03/07 00:17:17;;;;;;;52.33;25.33;;;5.00;99.90;;;;;;5054595;28;20455;-80
2024/03/07 00:19:47;;;;;;;45.07;24.60;;;5.00;99.90;;;;;;5046460;28;20459;-80
2024/03/07 00:22:14;;;;;;;50.83;26.20;;;5.00;99.90;;;;;;5054599;28;20538;-80
2024/03/07 00:24:42;;;;;;;41.40;22.63;;;5.00;99.90;;;;;;5037948;28;20961;-80
2024/03/07 00:27:09;;;;;;;48.70;23.37;;;5.00;99.90;;;;;;5054589;28;20452;-80
2024/03/07 00:29:37;;;;;;;40.70;25.37;;;4.90;99.90;;;;;;5054862;28;20461;-80
2024/03/07 00:32:05;;;;;;;43.53;25.40;;;4.90;99.90;;;;;;5054219;28;20455;-82
2024/03/07 00:34:32;;;;;;;44.43;23.30;;;4.90;99.90;;;;;;5039531;28;20482;-80
2024/03/07 00:37:00;;;;;;;48.90;25.70;;;4.80;99.90;;;;;;5042226;28;20453;-81
2024/03/07 00:39:27;;;;;;;51.57;26.20;;;4.80;99.90;;;;;;5033989;28;20455;-81
2024/03/07 00:41:54;;;;;;;38.13;23.50;;;4.80;99.90;;;;;;5053695;28;20442;-80
2024/03/07 00:44:21;;;;;;;48.83;25.90;;;4.80;99.90;;;;;;5041102;28;20923;-81
2024/03/07 00:46:48;;;;;;;44.50;23.70;;;4.80;99.90;;;;;;5051862;28;20465;-81
2024/03/07 00:49:14;;;;;;;45.13;24.60;;;4.70;99.90;;;;;;5053843;28;20448;-82
2024/03/07 00:51:41;;;;;;;45.60;24.27;;;4.70;99.90;;;;;;5053789;28;20461;-81
2024/03/07 00:54:12;;;;;;;51.27;27.60;;;4.70;99.90;;;;;;5053404;28;20929;-81
2024/03/07 00:56:39;;;;;;;46.13;22.23;;;4.60;99.90;;;;;;5053578;28;20443;-81
2024/03/07 00:59:06;;;;;;;42.47;22.27;;;4.60;99.90;;;;;;5048826;28;20459;-81
2024/03/07 01:01:36;;;;;;;46.27;22.90;;;4.60;99.90;;;;;;5042109;28;20454;-81
2024/03/07 01:04:03;;;;;;;39.40;24.53;;;4.60;99.90;;;;;;5043836;28;20992;-81
2024/03/07 01:06:29;;;;;;;42.83;24.40;;;4.60;99.90;;;;;;5041366;28;20493;-81
2024/03/07 01:08:56;;;;;;;41.30;23.53;;;4.60;99.90;;;;;;5053908;28;20832;-81
2024/03/07 01:11:24;;;;;;;44.43;22.80;;;4.60;99.90;;;;;;5053039;28;20543;-81
2024/03/07 01:13:55;;;;;;;45.83;24.50;;;4.50;99.90;;;;;;5048005;28;20459;-80
2024/03/07 01:16:22;;;;;;;42.33;24.40;;;4.60;99.90;;;;;;5052598;28;20441;-81
2024/03/07 01:18:49;;;;;;;42.30;24.30;;;4.50;99.90;;;;;;5056358;28;20457;-80
2024/03/07 01:21:16;;;;;;;44.77;26.40;;;4.50;99.90;;;;;;5057570;28;20467;-81
2024/03/07 01:23:43;;;;;;;46.13;24.30;;;4.50;99.90;;;;;;5058798;28;21020;-80
2024/03/07 01:26:09;;;;;;;46.90;25.80;;;4.50;99.90;;;;;;5057206;28;20499;-81
2024/03/07 01:28:38;;;;;;;42.43;24.40;;;4.40;99.90;;;;;;5057203;28;20472;-81
2024/03/07 01:31:04;;;;;;;44.00;24.10;;;4.40;99.90;;;;;;5057156;28;20456;-82
2024/03/07 01:33:31;;;;;;;44.20;25.17;;;4.40;99.90;;;;;;5057871;28;20472;-81
2024/03/07 01:35:58;;;;;;;48.03;25.70;;;4.40;99.90;;;;;;5048799;28;20464;-81
2024/03/07 01:38:25;;;;;;;45.10;24.80;;;4.40;99.90;;;;;;5050031;28;20454;-82
2024/03/07 01:40:52;;;;;;;45.93;26.07;;;4.40;99.90;;;;;;5056129;28;20451;-81
2024/03/07 01:43:19;;;;;;;41.83;24.17;;;4.40;99.90;;;;;;5050434;28;20888;-81
2024/03/07 01:45:47;;;;;;;51.90;25.47;;;4.30;99.90;;;;;;5055802;28;20494;-83
2024/03/07 01:48:25;;;;;;;42.13;22.93;;;4.30;99.90;;;;;;5056810;28;20456;-81
2024/03/07 01:50:52;;;;;;;57.10;26.07;;;4.30;99.90;;;;;;5057488;28;20445;-82
2024/03/07 01:53:19;;;;;;;42.00;23.83;;;4.30;99.90;;;;;;5053889;28;20457;-80
2024/03/07 01:55:46;;;;;;;46.57;23.47;;;4.20;99.90;;;;;;5053879;28;20481;-82
2024/03/07 01:58:18;;;;;;;47.93;25.30;;;4.20;99.90;;;;;;5051832;28;20493;-81
2024/03/07 02:00:47;;;;;;;45.60;24.27;;;4.20;99.90;;;;;;5047128;28;20494;-81
2024/03/07 02:03:14;;;;;;;50.43;23.93;;;4.10;99.90;;;;;;5056540;28;20876;-81
2024/03/07 02:05:41;;;;;;;47.13;23.10;;;4.00;99.90;;;;;;5055677;28;20997;-81
2024/03/07 02:08:08;;;;;;;42.30;22.30;;;4.00;99.90;;;;;;5052263;28;20827;-79
2024/03/07 02:10:35;;;;;;;48.50;26.03;;;4.00;99.90;;;;;;5053096;28;20633;-81
2024/03/07 02:13:02;;;;;;;43.27;22.90;;;4.00;99.90;;;;;;5056088;28;20471;-81
2024/03/07 02:15:29;;;;;;;39.57;23.10;;;3.90;99.90;;;;;;5055784;28;21020;-81
2024/03/07 02:17:58;;;;;;;38.80;22.97;;;3.90;99.90;;;;;;5056058;28;20537;-80
2024/03/07 02:20:24;;;;;;;40.80;22.97;;;3.90;99.90;;;;;;5056194;28;20454;-82
2024/03/07 02:22:53;;;;;;;45.20;23.40;;;3.90;99.90;;;;;;5056346;28;20554;-81
2024/03/07 02:25:19;;;;;;;45.70;24.17;;;3.90;99.90;;;;;;5047860;28;20593;-80
2024/03/07 02:27:46;;;;;;;46.47;23.50;;;3.90;99.90;;;;;;5048044;28;20554;-81
2024/03/07 02:30:14;;;;;;;41.70;22.63;;;3.90;99.90;;;;;;5052537;28;20992;-82
2024/03/07 02:32:41;;;;;;;47.83;24.33;;;3.80;99.90;;;;;;5054833;28;20551;-83
2024/03/07 02:35:09;;;;;;;39.33;21.07;;;3.80;99.90;;;;;;5039995;28;20499;-81
2024/03/07 02:37:36;;;;;;;49.13;25.10;;;3.80;99.90;;;;;;5048320;28;20419;-81
2024/03/07 02:40:05;;;;;;;45.33;24.23;;;3.70;99.90;;;;;;5050763;28;20554;-82
2024/03/07 02:42:32;;;;;;;51.27;25.30;;;3.70;99.90;;;;;;5046925;28;20469;-82
2024/03/07 02:44:59;;;;;;;40.07;22.40;;;3.70;99.90;;;;;;5046638;28;21033;-81
2024/03/07 02:47:26;;;;;;;43.73;24.03;;;3.70;99.90;;;;;;5054745;28;20465;-81
2024/03/07 02:49:53;;;;;;;37.23;22.10;;;3.70;99.90;;;;;;5052520;28;20457;-81
2024/03/07 02:52:20;;;;;;;42.93;22.57;;;3.60;99.90;;;;;;5047980;28;20461;-82
2024/03/07 02:54:47;;;;;;;35.37;21.00;;;3.60;99.90;;;;;;5051183;28;20827;-81
2024/03/07 02:57:15;;;;;;;40.17;22.67;;;3.60;99.90;;;;;;5054256;28;20997;-81
2024/03/07 02:59:43;;;;;;;48.50;24.03;;;3.50;99.90;;;;;;5055093;28;20437;-81
2024/03/07 03:02:09;;;;;;;43.80;22.20;;;3.50;99.90;;;;;;5055062;28;20462;-81
2024/03/07 03:04:36;;;;;;;41.77;22.50;;;3.50;99.90;;;;;;5052973;28;20482;-81
2024/03/07 03:07:03;;;;;;;47.67;23.23;;;3.40;99.90;;;;;;5054575;28;20494;-81
2024/03/07 03:09:30;;;;;;;39.83;22.27;;;3.40;99.90;;;;;;5054431;28;20455;-82
2024/03/07 03:11:56;;;;;;;39.07;21.27;;;3.40;99.90;;;;;;5054676;28;20447;-83
2024/03/07 03:14:24;;;;;;;37.53;21.67;;;3.30;99.90;;;;;;5046326;28;20475;-81
2024/03/07 03:16:51;;;;;;;41.83;23.13;;;3.30;99.90;;;;;;5054245;28;20448;-81
2024/03/07 03:19:18;;;;;;;44.90;24.87;;;3.40;99.90;;;;;;5053105;28;21000;-81
2024/03/07 03:21:45;;;;;;;41.03;22.80;;;3.30;99.90;;;;;;5054896;28;20458;-82
2024/03/07 03:24:12;;;;;;;45.00;22.87;;;3.30;99.90;;;;;;5049358;28;20476;-81
2024/03/07 03:26:40;;;;;;;41.60;21.50;;;3.30;99.90;;;;;;5051792;28;20842;-79
2024/03/07 03:29:07;;;;;;;39.90;22.00;;;3.20;99.90;;;;;;5054969;28;20457;-79
2024/03/07 03:31:36;;;;;;;35.70;21.53;;;3.20;99.90;;;;;;5055250;28;20479;-80
2024/03/07 03:34:02;;;;;;;46.83;23.37;;;3.20;99.90;;;;;;5054916;28;20980;-79
2024/03/07 03:36:29;;;;;;;46.07;25.50;;;3.20;99.90;;;;;;5053044;28;20458;-80
2024/03/07 03:38:56;;;;;;;42.40;21.20;;;3.10;99.90;;;;;;5048537;28;20453;-79
2024/03/07 03:41:23;;;;;;;47.40;23.83;;;3.10;99.90;;;;;;5054438;28;20449;-80
2024/03/07 03:43:50;;;;;;;41.10;21.30;;;3.10;99.90;;;;;;5046132;28;20462;-80
2024/03/07 03:46:17;;;;;;;42.37;21.57;;;3.00;99.90;;;;;;5054559;28;20497;-79
2024/03/07 03:48:45;;;;;;;38.07;21.93;;;3.00;99.90;;;;;;5052784;28;20460;-80
2024/03/07 03:51:12;;;;;;;35.30;20.20;;;2.90;99.90;;;;;;5040322;28;20431;-80
2024/03/07 03:53:40;;;;;;;38.10;21.37;;;2.90;99.90;;;;;;5054550;28;20457;-79
2024/03/07 03:56:10;;;;;;;41.57;22.60;;;2.90;99.90;;;;;;5053947;28;20901;-79
2024/03/07 03:58:40;;;;;;;37.10;22.87;;;2.90;99.90;;;;;;5054544;28;20549;-81
2024/03/07 04:01:12;;;;;;;37.87;21.57;;;2.90;99.90;;;;;;5054619;28;20452;-78
2024/03/07 04:03:39;;;;;;;43.23;21.80;;;2.90;99.90;;;;;;5045153;28;20450;-81
2024/03/07 04:06:08;;;;;;;43.90;23.70;;;2.90;99.90;;;;;;5033803;28;20496;-81
2024/03/07 04:08:36;;;;;;;43.80;23.40;;;2.90;99.90;;;;;;5050613;28;20423;-80
2024/03/07 04:11:04;;;;;;;38.27;21.47;;;2.90;99.90;;;;;;5052297;28;20804;-80
2024/03/07 04:13:31;;;;;;;40.97;20.30;;;2.80;99.90;;;;;;5054343;28;20450;-80
2024/03/07 04:15:59;;;;;;;40.77;21.80;;;2.80;99.90;;;;;;5046261;28;20473;-80
2024/03/07 04:18:26;;;;;;;43.33;23.20;;;2.80;99.90;;;;;;5055496;28;20846;-80
2024/03/07 04:20:54;;;;;;;37.70;19.97;;;2.80;99.90;;;;;;5054277;28;20522;-80
2024/03/07 04:23:22;;;;;;;37.77;21.27;;;2.70;99.90;;;;;;5054241;28;21028;-81
2024/03/07 04:25:50;;;;;;;37.63;21.23;;;2.80;99.90;;;;;;5045390;28;20494;-82
2024/03/07 04:28:17;;;;;;;38.33;22.63;;;2.80;99.90;;;;;;5046499;28;20469;-82
2024/03/07 04:30:44;;;;;;;46.13;23.10;;;2.70;99.90;;;;;;5054532;28;20459;-80
2024/03/07 04:33:10;;;;;;;40.23;21.57;;;2.70;99.90;;;;;;5046259;28;20516;-80
2024/03/07 04:35:37;;;;;;;39.13;22.20;;;2.70;99.90;;;;;;5054614;28;20984;-82
2024/03/07 04:38:09;;;;;;;41.67;22.57;;;2.70;99.90;;;;;;5053728;28;20539;-80
2024/03/07 04:40:38;;;;;;;42.50;23.80;;;2.70;99.90;;;;;;5045495;28;20516;-80
2024/03/07 04:43:05;;;;;;;42.00;22.80;;;2.70;99.90;;;;;;5038716;28;20461;-83
2024/03/07 04:45:32;;;;;;;38.57;21.40;;;2.70;99.90;;;;;;5053402;28;20560;-80
2024/03/07 04:47:59;;;;;;;40.67;21.67;;;2.70;99.90;;;;;;5046160;28;20461;-80
2024/03/07 04:50:26;;;;;;;37.40;21.50;;;2.70;99.90;;;;;;5053767;28;20454;-80
2024/03/07 04:52:53;;;;;;;39.07;21.77;;;2.70;99.90;;;;;;5052906;28;20463;-79
2024/03/07 04:55:20;;;;;;;38.53;22.27;;;2.70;99.90;;;;;;5053102;28;20571;-82
2024/03/07 04:57:48;;;;;;;43.50;22.87;;;2.70;99.90;;;;;;5053292;28;20804;-80
2024/03/07 05:00:18;;;;;;;43.53;23.50;;;2.70;99.90;;;;;;5053001;28;20821;-80
2024/03/07 05:02:48;;;;;;;41.80;22.00;;;2.60;99.90;;;;;;5053480;28;20452;-81
2024/03/07 05:05:18;;;;;;;42.33;24.00;;;2.70;99.90;;;;;;5053214;28;20831;-81
2024/03/07 05:07:45;;;;;;;39.67;21.50;;;2.70;99.90;;;;;;5052648;28;20964;-81
2024/03/07 05:10:12;;;;;;;37.67;23.87;;;2.90;99.90;;;;;;5047921;28;20448;-81
2024/03/07 05:12:41;;;;;;;49.50;24.43;;;2.90;99.90;;;;;;5050766;28;20454;-81
2024/03/07 05:15:12;;;;;;;40.07;24.93;;;2.90;99.90;;;;;;5053542;28;20472;-81
2024/03/07 05:17:40;;;;;;;42.63;24.37;;;3.00;99.90;;;;;;5043364;28;20461;-81
2024/03/07 05:20:10;;;;;;;47.00;25.50;;;3.00;99.90;;;;;;5053252;28;20950;-79
2024/03/07 05:22:38;;;;;;;42.67;23.33;;;3.10;99.90;;;;;;5053280;28;21045;-82
2024/03/07 05:25:06;;;;;;;44.43;24.70;;;3.10;99.90;;;;;;5040194;28;20514;-80
2024/03/07 05:27:33;;;;;;;43.47;24.40;;;3.10;99.90;;;;;;5032821;28;20490;-81
2024/03/07 05:30:00;;;;;;;43.53;24.13;;;3.10;99.90;;;;;;5053765;28;20451;-81
2024/03/07 05:32:28;;;;;;;43.27;23.83;;;3.10;99.90;;;;;;5043568;28;20449;-81
2024/03/07 05:34:55;;;;;;;35.00;21.50;;;3.20;99.90;;;;;;5045924;28;20474;-81
2024/03/07 05:37:23;;;;;;;40.67;23.00;;;3.10;99.90;;;;;;5049716;28;20459;-81
2024/03/07 05:39:50;;;;;;;40.83;24.23;;;3.10;99.90;;;;;;5050978;28;20946;-81
2024/03/07 05:42:16;;;;;;;35.60;22.73;;;3.10;99.90;;;;;;5047895;28;20461;-80
2024/03/07 05:44:43;;;;;;;45.97;23.57;;;3.10;99.90;;;;;;5052688;28;20474;-81
2024/03/07 05:47:13;;;;;;;36.30;22.20;;;3.10;99.90;;;;;;5058115;28;20558;-80
2024/03/07 05:49:42;;;;;;;39.43;21.50;;;3.10;99.90;;;;;;5064235;28;20451;-80
2024/03/07 05:52:10;;;;;;;36.70;21.10;;;3.10;99.90;;;;;;5063220;28;20484;-81
2024/03/07 05:54:36;;;;;;;42.03;22.90;;;3.10;99.90;;;;;;5059550;28;20567;-83
2024/03/07 05:57:05;;;;;;;38.13;21.70;;;3.10;99.90;;;;;;5055183;28;20765;-82
2024/03/07 05:59:32;;;;;;;41.10;21.93;;;3.10;99.90;;;;;;5051727;28;20461;-83
2024/03/07 06:01:59;;;;;;;37.97;22.70;;;3.10;99.90;;;;;;5050810;28;20450;-81
2024/03/07 06:04:26;;;;;;;34.40;20.70;;;3.10;99.90;;;;;;5055252;28;20462;-83
2024/03/07 06:06:54;;;;;;;41.50;23.80;;;3.10;99.90;;;;;;5054645;28;20491;-81
2024/03/07 06:09:23;;;;;;;37.37;23.27;;;3.10;99.90;;;;;;5050274;28;20463;-81
2024/03/07 06:11:50;;;;;;;37.67;20.50;;;3.10;99.90;;;;;;5058665;28;20524;-82
2024/03/07 06:14:17;;;;;;;36.37;21.13;;;3.10;99.90;;;;;;5057995;28;20537;-83
2024/03/07 06:16:44;;;;;;;41.00;23.63;;;3.10;99.90;;;;;;5052879;28;20458;-84
2024/03/07 06:19:11;;;;;;;35.70;21.20;;;3.10;99.90;;;;;;5054643;28;20453;-83
2024/03/07 06:21:40;;;;;;;40.57;23.17;;;3.10;99.90;;;;;;5055449;28;20447;-82
2024/03/07 06:24:10;;;;;;;42.20;22.67;;;3.10;99.90;;;;;;5052216;28;20487;-81
2024/03/07 06:26:47;;;;;;;38.30;22.67;;;3.10;99.90;;;;;;5058452;28;20489;-80
2024/03/07 06:29:15;;;;;;;42.00;22.47;;;3.10;99.90;;;;;;5051511;28;20507;-82
2024/03/07 06:31:43;;;;;;;37.50;22.50;;;3.10;99.90;;;;;;5049588;28;20452;-82
2024/03/07 06:34:09;;;;;;;48.40;23.17;;;3.10;99.90;;;;;;5049392;28;20484;-82
2024/03/07 06:36:36;;;;;;;41.33;22.80;;;3.10;99.90;;;;;;5057397;28;20444;-81
2024/03/07 06:39:04;;;;;;;46.20;22.97;;;3.10;99.90;;;;;;5054874;28;20467;-82
2024/03/07 06:41:33;;;;;;;47.13;22.80;;;3.10;99.90;;;;;;5055808;28;20547;-81
2024/03/07 06:44:00;;;;;;;43.10;22.97;;;3.10;99.90;;;;;;5051041;28;20448;-80
2024/03/07 06:46:28;;;;;;;36.60;20.10;;;3.20;99.90;;;;;;5064605;28;20854;-80
2024/03/07 06:48:55;;;;;;;42.33;22.63;;;3.20;99.90;;;;;;5065395;28;20870;-79
2024/03/07 06:51:24;;;;;;;43.13;24.30;;;3.20;99.90;;;;;;5057336;28;20455;-82
2024/03/07 06:53:51;;;;;;;43.50;22.57;;;3.30;99.90;;;;;;5057312;28;20983;-81
2024/03/07 06:56:18;;;;;;;40.10;23.13;;;3.30;99.90;;;;;;5059228;28;20918;-79
2024/03/07 06:58:48;;;;;;;45.60;24.23;;;3.30;99.90;;;;;;5061392;28;20475;-81
2024/03/07 07:01:16;;;;;;;34.23;19.07;;;3.30;99.90;;;;;;5062173;28;20506;-84
2024/03/07 07:03:44;;;;;;;45.53;22.87;;;3.40;99.90;;;;;;5053402;28;20993;-81
2024/03/07 07:06:11;;;;;;;39.37;22.70;;;3.40;99.90;;;;;;5058416;28;20455;-82
2024/03/07 07:08:38;;;;;;;44.47;23.57;;;3.40;99.90;;;;;;5052463;28;20829;-82
2024/03/07 07:11:05;;;;;;;41.10;23.07;;;3.40;99.90;;;;;;5054749;28;20536;-82
2024/03/07 07:13:32;;;;;;;42.60;22.53;;;3.40;99.90;;;;;;5052282;28;20535;-81
2024/03/07 07:16:01;;;;;;;38.63;22.73;;;3.40;99.90;;;;;;5053713;28;20470;-82
2024/03/07 07:18:28;;;;;;;42.90;21.60;;;3.40;99.90;;;;;;5053997;28;20459;-81
2024/03/07 07:20:56;;;;;;;35.87;20.17;;;3.50;99.90;;;;;;5054436;28;20446;-82
2024/03/07 07:23:23;;;;;;;45.00;22.97;;;3.60;99.90;;;;;;5057615;28;20490;-82
2024/03/07 07:25:50;;;;;;;37.50;20.13;;;3.60;99.90;;;;;;5054579;28;20549;-82
2024/03/07 07:28:17;;;;;;;39.30;23.33;;;3.60;99.90;;;;;;5050372;28;20496;-82
2024/03/07 07:30:43;;;;;;;37.03;21.27;;;3.70;99.90;;;;;;5055238;28;20552;-82
2024/03/07 07:33:12;;;;;;;35.77;19.77;;;3.70;99.90;;;;;;5051119;28;20454;-81
2024/03/07 07:35:39;;;;;;;33.77;18.23;;;3.80;99.90;;;;;;5052785;28;20476;-81
2024/03/07 07:38:06;;;;;;;37.30;21.33;;;3.80;99.90;;;;;;5055318;28;20445;-83
2024/03/07 07:40:33;;;;;;;37.80;20.10;;;3.90;99.90;;;;;;5056212;28;20959;-81
2024/03/07 07:43:01;;;;;;;38.20;19.50;;;4.00;99.90;;;;;;5055239;28;20490;-80
2024/03/07 07:45:28;;;;;;;38.40;20.97;;;4.00;99.90;;;;;;5055269;28;20462;-82
2024/03/07 07:47:55;;;;;;;47.10;21.37;;;4.10;99.90;;;;;;5053417;28;20499;-81
2024/03/07 07:50:24;;;;;;;35.47;18.67;;;4.10;99.90;;;;;;5054621;28;20457;-82
2024/03/07 07:52:53;;;;;;;38.50;20.70;;;4.20;99.90;;;;;;5054162;28;20458;-82
2024/03/07 07:55:21;;;;;;;36.27;22.17;;;4.30;99.90;;;;;;5055689;28;20492;-82
2024/03/07 07:57:52;;;;;;;34.23;19.70;;;4.40;99.90;;;;;;5053680;28;20544;-81
2024/03/07 08:00:31;;;;;;;36.00;21.30;;;4.40;99.90;;;;;;5052834;28;20452;-81
2024/03/07 08:03:00;;;;;;;33.97;20.83;;;4.50;99.90;;;;;;5051318;28;20447;-82
2024/03/07 08:05:29;;;;;;;33.40;19.50;;;4.60;99.90;;;;;;5054743;28;20477;-81
2024/03/07 08:08:06;;;;;;;35.80;19.57;;;4.70;99.90;;;;;;5050665;28;20510;-83
2024/03/07 08:10:36;;;;;;;37.97;20.47;;;4.80;99.90;;;;;;5052223;28;20459;-81
2024/03/07 08:13:05;;;;;;;32.00;18.20;;;4.90;99.90;;;;;;5050844;28;20528;-82
2024/03/07 08:15:32;;;;;;;29.83;18.17;;;5.00;99.90;;;;;;5056619;28;20470;-83
2024/03/07 08:18:00;;;;;;;30.27;18.80;;;5.10;99.90;;;;;;5056043;28;20450;-83
2024/03/07 08:20:30;;;;;;;34.37;18.20;;;5.30;99.90;;;;;;5056311;28;20467;-83
2024/03/07 08:22:59;;;;;;;35.40;19.60;;;5.50;99.90;;;;;;5054999;28;20534;-83
2024/03/07 08:25:27;;;;;;;37.93;17.80;;;5.60;99.90;;;;;;5058615;28;20945;-81
2024/03/07 08:27:56;;;;;;;35.63;18.23;;;6.00;99.90;;;;;;5057892;28;20591;-83
2024/03/07 08:30:23;;;;;;;37.70;21.93;;;6.20;99.90;;;;;;5058041;28;20522;-83
2024/03/07 08:32:52;;;;;;;27.67;17.40;;;6.50;99.90;;;;;;5038683;28;20483;-84
2024/03/07 08:35:19;;;;;;;31.90;17.57;;;6.90;99.90;;;;;;5037813;28;20848;-84
2024/03/07 08:37:52;;;;;;;32.50;18.60;;;7.10;99.90;;;;;;5038556;28;20539;-84
2024/03/07 08:40:20;;;;;;;29.53;16.90;;;7.10;99.90;;;;;;5052332;28;20463;-84
2024/03/07 08:42:49;;;;;;;28.57;16.23;;;7.20;99.90;;;;;;5058227;28;20502;-83
2024/03/07 08:45:17;;;;;;;29.63;17.70;;;7.30;99.90;;;;;;5057543;28;20968;-82
2024/03/07 08:47:44;;;;;;;29.57;17.73;;;7.30;99.90;;;;;;5058561;28;20498;-81
2024/03/07 08:50:12;;;;;;;30.57;17.07;;;7.30;99.90;;;;;;5058007;28;20543;-82
2024/03/07 08:52:40;;;;;;;26.30;16.30;;;7.40;99.90;;;;;;5056438;28;20548;-81
2024/03/07 08:55:11;;;;;;;29.93;16.70;;;7.50;99.90;;;;;;5051396;28;20496;-82
2024/03/07 08:57:38;;;;;;;28.03;17.47;;;7.60;99.90;;;;;;5057180;28;20887;-83
2024/03/07 09:00:09;;;;;;;28.33;17.23;;;7.70;99.90;;;;;;5057263;28;20884;-83
2024/03/07 09:02:36;;;;;;;32.30;17.33;;;7.60;99.90;;;;;;5058094;28;20460;-83
2024/03/07 09:05:03;;;;;;;30.50;17.50;;;7.70;99.90;;;;;;5056675;28;20500;-83
2024/03/07 09:07:30;;;;;;;33.33;19.10;;;7.70;99.90;;;;;;5056920;28;20909;-82
2024/03/07 09:09:57;;;;;;;29.13;16.23;;;7.80;99.90;;;;;;5056414;28;20467;-83
2024/03/07 09:12:26;;;;;;;23.13;14.80;;;7.70;99.90;;;;;;5055152;28;20460;-83
2024/03/07 09:14:53;;;;;;;25.53;16.37;;;7.80;99.90;;;;;;5056993;28;20876;-82
2024/03/07 09:17:21;;;;;;;29.17;16.87;;;7.80;99.90;;;;;;5058450;28;20460;-80
2024/03/07 09:19:48;;;;;;;25.90;14.33;;;7.70;99.90;;;;;;5056677;28;20541;-82
2024/03/07 09:22:14;;;;;;;24.93;14.30;;;7.60;99.90;;;;;;5057456;28;20490;-84
2024/03/07 09:24:41;;;;;;;30.03;16.40;;;7.70;99.90;;;;;;5056972;28;20508;-83
2024/03/07 09:27:08;;;;;;;22.93;15.27;;;7.70;99.90;;;;;;5056231;28;20572;-83
2024/03/07 09:29:36;;;;;;;24.60;15.07;;;7.90;99.90;;;;;;5049388;28;20440;-84
2024/03/07 09:32:08;;;;;;;25.83;14.67;;;7.80;99.90;;;;;;5049280;28;20547;-83
2024/03/07 09:34:35;;;;;;;25.07;14.50;;;8.10;99.90;;;;;;5056383;28;20865;-82
2024/03/07 09:37:02;;;;;;;24.93;15.53;;;8.30;99.90;;;;;;5056150;28;20549;-83
2024/03/07 09:39:31;;;;;;;22.37;13.10;;;8.60;99.90;;;;;;5059413;28;20487;-81
2024/03/07 09:41:57;;;;;;;29.43;15.27;;;8.90;99.90;;;;;;5060831;28;20530;-83
2024/03/07 09:44:27;;;;;;;31.17;16.10;;;9.20;99.90;;;;;;5058088;28;20484;-84
2024/03/07 09:46:58;;;;;;;22.57;14.20;;;8.90;99.90;;;;;;5055969;28;20462;-83
2024/03/07 09:49:25;;;;;;;22.93;14.03;;;9.20;99.90;;;;;;5039848;28;20484;-82
2024/03/07 09:51:54;;;;;;;21.00;12.60;;;9.60;99.90;;;;;;5040242;28;20464;-83
2024/03/07 09:54:23;;;;;;;25.90;13.70;;;9.80;99.90;;;;;;5040737;28;20484;-83
2024/03/07 09:56:50;;;;;;;30.17;14.80;;;9.80;99.90;;;;;;5040945;28;20462;-82
2024/03/07 09:59:20;;;;;;;32.80;18.03;;;9.80;99.90;;;;;;5041047;28;20455;-83
2024/03/07 10:01:50;;;;;;;24.50;12.70;;;9.90;99.90;;;;;;5050329;28;20461;-83
2024/03/07 10:04:25;;;;;;;28.03;14.17;;;10.10;99.90;;;;;;5059289;28;20489;-84
2024/03/07 10:06:53;;;;;;;25.97;14.80;;;10.40;99.90;;;;;;5059024;28;20991;-83
2024/03/07 10:09:22;;;;;;;22.10;13.20;;;10.50;99.90;;;;;;5053615;28;20852;-83
2024/03/07 10:11:57;;;;;;;23.23;12.50;;;10.80;99.90;;;;;;5040082;28;20449;-82
2024/03/07 10:14:23;;;;;;;22.90;13.67;;;11.20;99.90;;;;;;5039880;28;20562;-83
2024/03/07 10:16:50;;;;;;;24.47;13.73;;;11.50;99.90;;;;;;5042536;28;20905;-81
2024/03/07 10:19:19;;;;;;;19.67;12.03;;;11.90;99.90;;;;;;5055817;28;20452;-84
2024/03/07 10:21:46;;;;;;;22.30;12.63;;;12.30;99.90;;;;;;5061462;28;20456;-83
2024/03/07 10:24:14;;;;;;;23.90;14.53;;;12.60;99.90;;;;;;5061114;28;20511;-83
2024/03/07 10:26:41;;;;;;;21.77;13.43;;;12.60;99.90;;;;;;5061139;28;20515;-83
2024/03/07 10:29:08;;;;;;;20.67;12.87;;;12.50;99.90;;;;;;5061787;28;20489;-82
2024/03/07 10:31:36;;;;;;;24.43;13.90;;;12.10;99.90;;;;;;5061637;28;20824;-83
2024/03/07 10:34:04;;;;;;;23.70;12.40;;;11.80;99.90;;;;;;5060590;28;20487;-82
2024/03/07 10:36:33;;;;;;;23.93;13.73;;;11.70;99.90;;;;;;5061442;28;20871;-82
2024/03/07 10:39:13;;;;;;;23.23;13.43;;;11.10;99.90;;;;;;5051970;28;20451;-82
2024/03/07 10:41:45;;;;;;;21.37;12.13;;;11.00;99.90;;;;;;5056769;28;20473;-83
2024/03/07 10:44:17;;;;;;;21.80;12.67;;;11.30;99.90;;;;;;5039698;28;20500;-83
2024/03/07 10:46:47;;;;;;;25.30;13.80;;;12.00;99.90;;;;;;5038418;28;20451;-83
2024/03/07 10:49:17;;;;;;;25.57;14.17;;;12.30;99.90;;;;;;5039433;28;20875;-83
2024/03/07 10:51:53;;;;;;;23.50;13.80;;;12.40;99.90;;;;;;5051622;28;20880;-82
2024/03/07 10:54:30;;;;;;;25.13;13.57;;;12.50;99.90;;;;;;5059597;28;20553;-81
2024/03/07 10:57:08;;;;;;;20.63;12.03;;;12.50;99.90;;;;;;5047710;28;20997;-82
2024/03/07 10:59:39;;;;;;;20.83;12.87;;;13.20;99.90;;;;;;5040485;28;20539;-83
2024/03/07 11:02:19;;;;;;;21.80;13.23;;;15.00;99.90;;;;;;5040065;28;20501;-82
2024/03/07 11:04:50;;;;;;;21.27;12.43;;;16.50;98.40;;;;;;5039218;28;20470;-81
2024/03/07 11:07:20;;;;;;;24.20;15.70;;;17.60;97.30;;;;;;5042339;28;20464;-80
2024/03/07 11:09:51;;;;;;;20.77;13.77;;;18.80;93.00;;;;;;5058496;28;20810;-82
2024/03/07 11:12:20;;;;;;;21.27;13.93;;;19.10;90.50;;;;;;5045182;28;20438;-78
2024/03/07 11:14:50;;;;;;;25.67;13.40;;;18.30;88.50;;;;;;5038921;28;20473;-80
2024/03/07 11:17:19;;;;;;;22.07;13.97;;;16.90;89.20;;;;;;5037948;28;20461;-80
2024/03/07 11:19:47;;;;;;;24.27;14.60;;;16.20;88.70;;;;;;5039710;28;20451;-83
2024/03/07 11:22:29;;;;;;;27.73;15.63;;;15.80;90.70;;;;;;5039387;28;20527;-82
2024/03/07 11:25:06;;;;;;;23.50;13.43;;;15.30;90.80;;;;;;5048661;28;20527;-82
2024/03/07 11:27:34;;;;;;;24.93;14.20;;;14.60;90.60;;;;;;5057327;28;20548;-82
2024/03/07 11:30:06;;;;;;;22.13;13.80;;;14.20;92.00;;;;;;5058576;28;20464;-83
2024/03/07 11:32:36;;;;;;;25.50;14.70;;;13.90;92.20;;;;;;5057513;28;20455;-84
2024/03/07 11:35:07;;;;;;;23.83;14.83;;;13.20;92.50;;;;;;5057338;28;20516;-84
2024/03/07 11:37:46;;;;;;;23.07;13.27;;;12.90;93.70;;;;;;5058012;28;20810;-83
2024/03/07 11:40:18;;;;;;;25.83;13.90;;;13.00;95.00;;;;;;5056449;28;20815;-83
2024/03/07 11:42:47;;;;;;;23.70;13.07;;;13.00;94.40;;;;;;5055449;28;20448;-83
2024/03/07 11:45:24;;;;;;;20.67;11.67;;;13.20;94.90;;;;;;5056825;28;20893;-83
2024/03/07 11:47:57;;;;;;;21.40;12.40;;;13.40;94.90;;;;;;5057212;28;20490;-83
2024/03/07 11:50:25;;;;;;;21.60;13.37;;;13.30;93.70;;;;;;5057202;28;20509;-83
2024/03/07 11:52:54;;;;;;;23.33;13.77;;;12.90;94.70;;;;;;5057654;28;20825;-81
2024/03/07 11:55:22;;;;;;;18.90;11.40;;;14.40;96.40;;;;;;5057639;28;20487;-80
2024/03/07 11:57:50;;;;;;;20.20;11.70;;;17.50;96.10;;;;;;5056284;28;20462;-82
2024/03/07 12:00:19;;;;;;;20.33;13.27;;;19.00;91.50;;;;;;5058822;28;20459;-80
2024/03/07 12:02:48;;;;;;;23.57;12.97;;;19.80;90.20;;;;;;5058643;28;21021;-81
2024/03/07 12:05:15;;;;;;;20.60;12.97;;;20.40;88.50;;;;;;5059432;28;20470;-81
2024/03/07 12:07:43;;;;;;;19.63;12.23;;;20.80;84.50;;;;;;5057797;28;20462;-80
2024/03/07 12:10:12;;;;;;;19.80;12.87;;;20.60;81.70;;;;;;5058684;28;20482;-81
2024/03/07 12:12:41;;;;;;;19.33;13.27;;;20.60;79.60;;;;;;5058391;28;20466;-82
2024/03/07 12:15:17;;;;;;;22.73;11.60;;;21.90;80.60;;;;;;5056482;28;20905;-81
2024/03/07 12:17:45;;;;;;;19.90;13.50;;;22.30;74.60;;;;;;5057077;28;20463;-82
2024/03/07 12:20:27;;;;;;;17.17;11.53;;;22.80;75.50;;;;;;5058187;28;20455;-82
2024/03/07 12:22:56;;;;;;;17.63;12.63;;;24.30;74.10;;;;;;5058674;28;20575;-82
2024/03/07 12:25:25;;;;;;;22.20;12.90;;;24.30;70.70;;;;;;5058179;28;20510;-81
2024/03/07 12:28:05;;;;;;;20.30;12.67;;;24.10;68.70;;;;;;5058174;28;20451;-81
2024/03/07 12:30:33;;;;;;;18.10;12.60;;;23.50;70.10;;;;;;5056804;28;20460;-82
2024/03/07 12:33:00;;;;;;;20.03;13.67;;;22.80;68.00;;;;;;5050646;28;20435;-81
2024/03/07 12:35:27;;;;;;;22.13;13.53;;;22.70;69.40;;;;;;5058190;28;20467;-81
2024/03/07 12:37:56;;;;;;;23.37;14.30;;;20.90;65.80;;;;;;5058077;28;20459;-80
2024/03/07 12:40:23;;;;;;;20.33;12.97;;;18.90;70.80;;;;;;5057740;28;20454;-82